Time;durP1;ratioP1;P1;durP2;ratioP2;P2;SDS_P1;SDS_P2;PMS_P1;PMS_P2;Temp;Humidity;BMP_temperature;BMP_pressure;BME280_temperature;BME280_humidity;BME280_pressure;Samples;Min_cycle;Max_cycle;Signal;HPM_P1;HPM_P2
2023/01/25 00:01:51;;;;;;;20.67;13.43;;;5.10;99.90;;;;;;5113478;28;20179;-83
2023/01/25 00:04:19;;;;;;;22.67;14.90;;;5.20;99.90;;;;;;5117239;28;20182;-83
2023/01/25 00:06:45;;;;;;;23.45;13.80;;;5.20;99.90;;;;;;5114802;28;20210;-84
2023/01/25 00:09:11;;;;;;;21.40;14.82;;;5.20;99.90;;;;;;5113390;28;20286;-82
2023/01/25 00:11:37;;;;;;;21.10;12.40;;;5.20;99.90;;;;;;5113099;28;20180;-85
2023/01/25 00:14:04;;;;;;;21.53;14.33;;;5.20;99.90;;;;;;5114660;28;20219;-83
2023/01/25 00:16:30;;;;;;;19.90;13.80;;;5.10;99.90;;;;;;5113059;28;20225;-83
2023/01/25 00:18:56;;;;;;;21.42;12.30;;;5.00;99.90;;;;;;5114670;28;20200;-83
2023/01/25 00:21:23;;;;;;;19.03;12.63;;;5.10;99.90;;;;;;5113054;28;20183;-83
2023/01/25 00:23:50;;;;;;;19.63;11.43;;;5.00;99.90;;;;;;5114573;28;20200;-86
2023/01/25 00:26:16;;;;;;;18.58;11.77;;;5.00;99.90;;;;;;5114304;28;20172;-83
2023/01/25 00:28:42;;;;;;;20.97;12.80;;;5.00;99.90;;;;;;5114328;28;20207;-82
2023/01/25 00:31:14;;;;;;;21.10;13.53;;;4.90;99.90;;;;;;5112902;28;20495;-84
2023/01/25 00:33:59;;;;;;;26.83;16.75;;;4.90;99.90;;;;;;5113933;28;20970;-84
2023/01/25 00:36:38;;;;;;;23.63;15.43;;;5.00;99.90;;;;;;5112946;28;20224;-86
2023/01/25 00:39:05;;;;;;;21.55;15.50;;;5.10;99.90;;;;;;5114514;28;20214;-85
2023/01/25 00:41:31;;;;;;;24.52;16.42;;;5.10;99.90;;;;;;5112931;28;20180;-85
2023/01/25 00:43:57;;;;;;;23.42;16.30;;;5.10;99.90;;;;;;5114393;28;20203;-85
2023/01/25 00:46:23;;;;;;;23.63;15.13;;;5.10;99.90;;;;;;5112787;28;20184;-83
2023/01/25 00:48:51;;;;;;;21.15;14.07;;;5.00;99.90;;;;;;5115823;28;20187;-83
2023/01/25 00:51:17;;;;;;;20.25;12.30;;;5.00;99.90;;;;;;5115352;28;20176;-83
2023/01/25 00:53:43;;;;;;;25.10;15.50;;;4.90;99.90;;;;;;5113702;28;20222;-85
2023/01/25 00:56:08;;;;;;;24.93;16.93;;;4.90;99.90;;;;;;5113820;28;20719;-85
2023/01/25 00:58:34;;;;;;;24.20;13.97;;;4.90;99.90;;;;;;5114230;28;20207;-82
2023/01/25 01:00:59;;;;;;;21.63;13.60;;;4.80;99.90;;;;;;5113966;28;20172;-82
2023/01/25 01:03:25;;;;;;;21.50;14.80;;;4.90;99.90;;;;;;5114097;28;20584;-83
2023/01/25 01:06:01;;;;;;;23.10;13.47;;;4.90;99.90;;;;;;5113975;28;20176;-84
2023/01/25 01:08:28;;;;;;;20.45;14.00;;;4.90;99.90;;;;;;5113935;28;20634;-83
2023/01/25 01:11:00;;;;;;;24.17;14.33;;;4.90;99.90;;;;;;5112557;28;20168;-82
2023/01/25 01:13:27;;;;;;;23.77;14.27;;;4.90;99.90;;;;;;5115876;28;20298;-83
2023/01/25 01:15:53;;;;;;;24.17;14.15;;;5.00;99.90;;;;;;5116754;28;20675;-84
2023/01/25 01:18:19;;;;;;;25.25;15.05;;;5.00;99.90;;;;;;5116485;28;20231;-82
2023/01/25 01:20:49;;;;;;;23.83;15.00;;;5.00;99.90;;;;;;5117785;28;20247;-83
2023/01/25 01:23:16;;;;;;;25.40;15.73;;;5.10;99.90;;;;;;5119027;28;20191;-86
2023/01/25 01:25:41;;;;;;;26.65;15.77;;;5.20;99.90;;;;;;5117776;28;20263;-86
2023/01/25 01:28:07;;;;;;;23.77;15.90;;;5.20;99.90;;;;;;5116256;28;20606;-83
2023/01/25 01:30:33;;;;;;;23.52;15.55;;;5.30;99.90;;;;;;5116303;28;20575;-82
2023/01/25 01:32:59;;;;;;;21.83;13.77;;;5.30;99.90;;;;;;5116096;28;20252;-86
2023/01/25 01:35:24;;;;;;;22.93;13.83;;;5.20;99.90;;;;;;5117433;28;20176;-84
2023/01/25 01:37:50;;;;;;;28.93;17.83;;;5.20;99.90;;;;;;5117437;28;20590;-84
2023/01/25 01:40:16;;;;;;;24.90;16.77;;;5.20;99.90;;;;;;5116053;28;20171;-84
2023/01/25 01:43:02;;;;;;;26.35;14.88;;;5.30;99.90;;;;;;5117234;28;20676;-86
2023/01/25 01:45:47;;;;;;;23.23;14.02;;;5.30;99.90;;;;;;5117306;28;20164;-85
2023/01/25 01:48:38;;;;;;;23.33;16.10;;;5.30;99.90;;;;;;5117302;28;20556;-84
2023/01/25 01:51:27;;;;;;;19.70;14.77;;;5.20;99.90;;;;;;5115363;28;20187;-85
2023/01/25 01:54:34;;;;;;;25.45;15.85;;;5.10;99.90;;;;;;5110615;28;20235;-84
2023/01/25 01:57:13;;;;;;;20.38;13.73;;;5.10;99.90;;;;;;5116280;28;20242;-83
2023/01/25 01:59:54;;;;;;;23.48;13.88;;;5.10;99.90;;;;;;5119052;28;20694;-84
2023/01/25 02:02:23;;;;;;;25.63;14.35;;;5.10;99.90;;;;;;5116831;28;20180;-85
2023/01/25 02:04:50;;;;;;;21.00;12.70;;;5.10;99.90;;;;;;5116907;27;20221;-85
2023/01/25 02:07:28;;;;;;;25.10;14.52;;;5.10;99.90;;;;;;5115354;28;20223;-83
2023/01/25 02:09:54;;;;;;;27.05;19.10;;;5.10;99.90;;;;;;5116887;28;20213;-83
2023/01/25 02:12:22;;;;;;;24.42;17.08;;;5.10;99.90;;;;;;5115077;28;20215;-83
2023/01/25 02:14:50;;;;;;;25.95;15.43;;;5.10;99.90;;;;;;5116588;28;20204;-85
2023/01/25 02:17:26;;;;;;;24.65;16.17;;;5.10;99.90;;;;;;5115175;28;20283;-86
2023/01/25 02:20:13;;;;;;;21.83;14.98;;;5.10;99.90;;;;;;5116685;28;20214;-83
2023/01/25 02:22:48;;;;;;;25.42;15.07;;;5.00;99.90;;;;;;5115114;28;20203;-85
2023/01/25 02:25:15;;;;;;;22.15;13.82;;;5.10;99.90;;;;;;5115228;28;20518;-83
2023/01/25 02:27:45;;;;;;;25.65;14.43;;;5.20;99.90;;;;;;5116358;28;20204;-85
2023/01/25 02:30:11;;;;;;;21.38;14.23;;;5.10;99.90;;;;;;5116905;28;20625;-86
2023/01/25 02:32:37;;;;;;;21.70;13.37;;;5.00;99.90;;;;;;5114958;28;20204;-85
2023/01/25 02:35:04;;;;;;;25.70;15.00;;;5.00;99.90;;;;;;5115056;28;20503;-83
2023/01/25 02:37:29;;;;;;;24.75;16.35;;;5.00;99.90;;;;;;5116150;28;20505;-86
2023/01/25 02:39:55;;;;;;;25.67;15.87;;;5.00;99.90;;;;;;5116252;28;20212;-83
2023/01/25 02:42:20;;;;;;;23.37;14.63;;;5.10;99.90;;;;;;5114854;28;20211;-86
2023/01/25 02:44:47;;;;;;;24.93;14.73;;;5.10;99.90;;;;;;5116679;28;20222;-83
2023/01/25 02:47:13;;;;;;;28.25;16.45;;;5.20;99.90;;;;;;5116269;28;20671;-83
2023/01/25 02:49:38;;;;;;;21.97;15.70;;;5.20;99.90;;;;;;5119428;28;20179;-84
2023/01/25 02:52:04;;;;;;;28.20;15.10;;;5.20;99.90;;;;;;5118657;28;20180;-85
2023/01/25 02:54:30;;;;;;;26.40;15.53;;;5.20;99.90;;;;;;5116352;28;20654;-84
2023/01/25 02:56:56;;;;;;;22.20;13.83;;;5.30;99.90;;;;;;5114381;28;20973;-83
2023/01/25 02:59:22;;;;;;;23.90;12.65;;;5.20;99.90;;;;;;5116328;28;20171;-83
2023/01/25 03:01:48;;;;;;;20.67;12.47;;;5.20;99.90;;;;;;5115709;28;20576;-84
2023/01/25 03:04:14;;;;;;;23.27;13.60;;;5.00;99.90;;;;;;5115656;28;20180;-85
2023/01/25 03:06:40;;;;;;;25.02;13.75;;;4.90;99.90;;;;;;5114460;28;20241;-84
2023/01/25 03:09:09;;;;;;;22.00;12.88;;;4.90;99.90;;;;;;5115468;28;20210;-86
2023/01/25 03:11:35;;;;;;;23.05;14.20;;;5.00;99.90;;;;;;5114298;28;20541;-86
2023/01/25 03:14:01;;;;;;;24.35;15.00;;;4.90;99.90;;;;;;5115780;28;20219;-85
2023/01/25 03:16:27;;;;;;;22.80;15.10;;;4.90;99.90;;;;;;5114146;28;20176;-85
2023/01/25 03:18:53;;;;;;;25.60;14.00;;;4.90;99.90;;;;;;5114282;28;20203;-83
2023/01/25 03:21:21;;;;;;;22.77;13.65;;;4.80;99.90;;;;;;5115694;28;20515;-85
2023/01/25 03:23:47;;;;;;;21.05;14.40;;;4.80;99.90;;;;;;5117259;28;20214;-83
2023/01/25 03:26:15;;;;;;;21.17;13.00;;;4.70;99.90;;;;;;5114008;28;20180;-83
2023/01/25 03:28:42;;;;;;;27.55;15.27;;;4.80;99.90;;;;;;5115371;28;20589;-84
2023/01/25 03:31:10;;;;;;;25.70;14.20;;;4.80;99.90;;;;;;5113935;28;20172;-85
2023/01/25 03:33:36;;;;;;;24.15;12.80;;;4.90;99.90;;;;;;5113445;28;20304;-85
2023/01/25 03:36:02;;;;;;;22.02;13.98;;;4.80;99.90;;;;;;5114747;28;20176;-86
2023/01/25 03:38:28;;;;;;;26.25;14.40;;;4.90;99.90;;;;;;5113722;28;20203;-85
2023/01/25 03:40:54;;;;;;;22.67;11.90;;;4.80;99.90;;;;;;5113769;28;20172;-82
2023/01/25 03:43:20;;;;;;;21.40;12.60;;;4.70;99.90;;;;;;5113658;28;20414;-83
2023/01/25 03:45:52;;;;;;;18.42;13.65;;;4.60;99.90;;;;;;5113697;28;20408;-85
2023/01/25 03:48:18;;;;;;;21.00;12.88;;;4.50;99.90;;;;;;5115055;28;20669;-82
2023/01/25 03:50:52;;;;;;;20.98;13.00;;;4.60;99.90;;;;;;5113576;28;20227;-83
2023/01/25 03:53:28;;;;;;;23.15;12.90;;;4.60;99.90;;;;;;5113546;28;20215;-86
2023/01/25 03:56:07;;;;;;;22.65;12.90;;;4.60;99.90;;;;;;5113307;28;20262;-85
2023/01/25 03:58:34;;;;;;;21.65;12.18;;;4.50;99.90;;;;;;5115154;28;20210;-87
2023/01/25 04:01:00;;;;;;;21.23;12.88;;;4.50;99.90;;;;;;5115829;28;20628;-85
2023/01/25 04:03:27;;;;;;;22.55;12.32;;;4.40;99.90;;;;;;5114724;28;20208;-83
2023/01/25 04:05:55;;;;;;;21.92;13.88;;;4.40;99.90;;;;;;5113312;28;20516;-83
2023/01/25 04:08:21;;;;;;;24.08;13.98;;;4.40;99.90;;;;;;5114424;28;20203;-84
2023/01/25 04:10:51;;;;;;;21.95;13.10;;;4.50;99.90;;;;;;5113239;28;20172;-85
2023/01/25 04:13:18;;;;;;;24.67;13.43;;;4.50;99.90;;;;;;5114255;28;20207;-83
2023/01/25 04:15:44;;;;;;;28.08;13.35;;;4.40;99.90;;;;;;5114349;28;20300;-82
2023/01/25 04:18:09;;;;;;;21.10;13.67;;;4.40;99.90;;;;;;5114501;28;20665;-86
2023/01/25 04:20:35;;;;;;;26.60;13.57;;;4.40;99.90;;;;;;5113167;28;20183;-83
2023/01/25 04:23:01;;;;;;;20.00;12.43;;;4.40;99.90;;;;;;5114491;28;20200;-85
2023/01/25 04:25:26;;;;;;;20.60;13.10;;;4.40;99.90;;;;;;5113027;28;20199;-83
2023/01/25 04:27:52;;;;;;;25.97;13.00;;;4.40;99.90;;;;;;5114252;28;20660;-83
2023/01/25 04:30:18;;;;;;;22.13;12.57;;;4.40;99.90;;;;;;5113026;28;20224;-82
2023/01/25 04:32:44;;;;;;;22.53;10.77;;;4.40;99.90;;;;;;5112903;28;20290;-86
2023/01/25 04:35:09;;;;;;;26.53;13.67;;;4.50;99.90;;;;;;5112892;28;20456;-84
2023/01/25 04:37:35;;;;;;;21.33;12.83;;;4.60;99.90;;;;;;5112812;28;20207;-83
2023/01/25 04:40:00;;;;;;;23.73;12.83;;;4.70;99.90;;;;;;5114220;28;20172;-85
2023/01/25 04:42:26;;;;;;;19.27;12.77;;;4.60;99.90;;;;;;5114121;28;20191;-83
2023/01/25 04:44:52;;;;;;;25.53;13.47;;;4.70;99.90;;;;;;5113346;28;20180;-82
2023/01/25 04:47:18;;;;;;;24.43;12.30;;;4.60;99.90;;;;;;5114028;28;20956;-85
2023/01/25 04:49:43;;;;;;;20.50;13.23;;;4.70;99.90;;;;;;5118252;28;20201;-82
2023/01/25 04:52:09;;;;;;;22.90;12.33;;;4.70;99.90;;;;;;5118298;28;20203;-83
2023/01/25 04:54:35;;;;;;;21.97;10.50;;;4.80;99.90;;;;;;5117066;28;20231;-86
2023/01/25 04:57:00;;;;;;;21.10;11.77;;;4.80;99.90;;;;;;5116825;28;20257;-86
2023/01/25 04:59:26;;;;;;;20.90;12.00;;;4.80;99.90;;;;;;5116616;28;20184;-86
2023/01/25 05:01:52;;;;;;;24.30;12.10;;;4.90;99.90;;;;;;5118150;28;20261;-85
2023/01/25 05:04:17;;;;;;;19.37;11.53;;;4.80;99.90;;;;;;5118002;28;20176;-85
2023/01/25 05:06:43;;;;;;;43.23;21.30;;;4.80;99.90;;;;;;5116724;28;20549;-86
2023/01/25 05:09:09;;;;;;;29.90;15.47;;;4.80;99.90;;;;;;5118405;28;20207;-84
2023/01/25 05:11:35;;;;;;;27.02;13.10;;;4.80;99.90;;;;;;5118196;28;20198;-88
2023/01/25 05:14:00;;;;;;;22.83;13.07;;;4.90;99.90;;;;;;5118642;28;20212;-86
2023/01/25 05:16:26;;;;;;;23.00;12.90;;;4.90;99.90;;;;;;5117950;28;20178;-88
2023/01/25 05:18:54;;;;;;;30.17;14.07;;;5.00;99.90;;;;;;5118433;28;20637;-89
2023/01/25 05:24:04;;;;;;;18.92;11.00;;;4.90;99.90;;;;;;5118327;28;20252;-83
2023/01/25 05:29:14;;;;;;;21.73;11.90;;;4.80;99.90;;;;;;5118268;28;20448;-89
2023/01/25 05:31:40;;;;;;;19.73;11.53;;;4.80;99.90;;;;;;5117862;28;20172;-87
2023/01/25 05:34:05;;;;;;;16.67;11.17;;;4.80;99.90;;;;;;5118466;28;20222;-87
2023/01/25 05:36:31;;;;;;;22.73;13.50;;;4.90;99.90;;;;;;5120987;28;20660;-81
2023/01/25 05:38:57;;;;;;;20.60;11.60;;;5.10;99.90;;;;;;5121719;28;20199;-82
2023/01/25 05:41:22;;;;;;;21.13;13.57;;;5.00;99.90;;;;;;5116085;28;20211;-86
2023/01/25 05:43:48;;;;;;;21.90;12.90;;;4.90;99.90;;;;;;5117649;28;20207;-88
2023/01/25 05:46:14;;;;;;;20.60;12.90;;;4.70;99.90;;;;;;5115986;28;20168;-88
2023/01/25 05:48:40;;;;;;;131.20;63.53;;;4.80;99.90;;;;;;5116003;28;20211;-84
2023/01/25 05:51:05;;;;;;;18.10;11.90;;;4.70;99.90;;;;;;5117134;28;20172;-84
2023/01/25 05:53:31;;;;;;;23.17;15.30;;;4.60;99.90;;;;;;5116710;28;20460;-83
2023/01/25 05:56:04;;;;;;;24.10;14.67;;;4.70;99.90;;;;;;5105891;28;20194;-87
2023/01/25 05:58:30;;;;;;;34.25;18.25;;;4.70;99.90;;;;;;5108789;28;20681;-84
2023/01/25 06:00:58;;;;;;;34.53;17.40;;;4.80;99.90;;;;;;5094589;28;20161;-88
2023/01/25 06:03:23;;;;;;;40.17;23.52;;;4.70;99.90;;;;;;5093246;28;20212;-82
2023/01/25 06:05:54;;;;;;;33.03;19.90;;;4.60;99.90;;;;;;5093912;28;20172;-86
2023/01/25 06:10:15;;;;;;;207.13;91.07;;;4.70;99.90;;;;;;5172188;27;20624;-87
2023/01/25 06:12:40;;;;;;;630.27;319.27;;;4.70;99.90;;;;;;5142732;27;20230;-81
2023/01/25 06:15:07;;;;;;;48.20;27.03;;;4.70;99.90;;;;;;5109366;28;20533;-88
2023/01/25 06:17:32;;;;;;;43.92;27.70;;;4.70;99.90;;;;;;5108958;28;20252;-84
2023/01/25 06:19:58;;;;;;;19.60;13.37;;;4.60;99.90;;;;;;5110828;28;20575;-83
2023/01/25 06:22:24;;;;;;;27.20;15.33;;;4.60;99.90;;;;;;5108273;28;20248;-88
2023/01/25 06:24:49;;;;;;;25.73;14.07;;;4.70;99.90;;;;;;5128461;28;20179;-82
2023/01/25 06:27:15;;;;;;;20.43;13.07;;;4.60;99.90;;;;;;5111385;28;20609;-82
2023/01/25 06:29:42;;;;;;;139.97;70.60;;;4.70;99.90;;;;;;5113479;28;20457;-81
2023/01/25 06:32:08;;;;;;;30.98;18.02;;;4.60;99.90;;;;;;5113309;28;20199;-81
2023/01/25 06:34:33;;;;;;;23.30;12.80;;;4.60;99.90;;;;;;5109147;28;20286;-87
2023/01/25 06:36:59;;;;;;;33.60;22.87;;;4.60;99.90;;;;;;5113785;28;20179;-82
2023/01/25 06:39:24;;;;;;;22.87;14.50;;;4.60;99.90;;;;;;5100225;28;20214;-82
2023/01/25 06:41:50;;;;;;;22.40;13.67;;;4.50;99.90;;;;;;5110326;27;20175;-82
2023/01/25 06:44:16;;;;;;;25.80;14.30;;;4.60;99.90;;;;;;5129205;28;20183;-82
2023/01/25 06:46:41;;;;;;;27.37;14.50;;;4.60;99.90;;;;;;5123052;28;20258;-82
2023/01/25 06:49:07;;;;;;;24.10;14.07;;;4.60;99.90;;;;;;5123759;28;20624;-89
2023/01/25 06:51:32;;;;;;;20.17;12.73;;;4.60;99.90;;;;;;5119210;28;20172;-81
2023/01/25 06:54:03;;;;;;;22.83;14.70;;;4.60;99.90;;;;;;5112602;28;20506;-89
2023/01/25 06:56:28;;;;;;;23.63;12.65;;;4.50;99.90;;;;;;5111521;28;20168;-82
2023/01/25 06:58:54;;;;;;;27.90;14.67;;;4.50;99.90;;;;;;5108680;28;20687;-89
2023/01/25 07:01:29;;;;;;;31.33;19.43;;;4.50;99.90;;;;;;5089286;28;20301;-88
2023/01/25 07:03:57;;;;;;;75.53;39.90;;;4.60;99.90;;;;;;5095509;28;20212;-82
2023/01/25 07:06:25;;;;;;;31.60;17.80;;;4.60;99.90;;;;;;5108345;28;20168;-82
2023/01/25 07:08:51;;;;;;;25.00;16.65;;;4.60;99.90;;;;;;5090273;28;20404;-88
2023/01/25 07:11:17;;;;;;;26.25;15.93;;;4.70;99.90;;;;;;5109320;28;20222;-83
2023/01/25 07:13:45;;;;;;;37.75;22.02;;;4.70;99.90;;;;;;5124369;28;20211;-83
2023/01/25 07:16:13;;;;;;;109.30;60.63;;;4.80;99.90;;;;;;5108941;28;20175;-83
2023/01/25 07:18:39;;;;;;;58.40;40.90;;;4.90;99.90;;;;;;5116247;27;20234;-88
2023/01/25 07:21:11;;;;;;;30.07;18.77;;;5.00;99.90;;;;;;5106210;28;20189;-84
2023/01/25 07:23:37;;;;;;;31.98;16.17;;;5.10;99.90;;;;;;5113602;28;20448;-88
2023/01/25 07:26:04;;;;;;;30.77;19.02;;;5.10;99.90;;;;;;5092699;28;20182;-82
2023/01/25 07:28:31;;;;;;;25.42;14.55;;;5.20;99.90;;;;;;5096668;28;20223;-83
2023/01/25 07:31:06;;;;;;;125.68;77.18;;;5.10;99.90;;;;;;5113803;28;20183;-81
2023/01/25 07:33:33;;;;;;;33.38;19.17;;;5.10;99.90;;;;;;5100004;28;20260;-89
2023/01/25 07:36:03;;;;;;;38.55;23.02;;;5.10;99.90;;;;;;5116302;28;20196;-88
2023/01/25 07:38:29;;;;;;;28.30;17.77;;;5.10;99.90;;;;;;5097935;28;20200;-83
2023/01/25 07:40:55;;;;;;;25.03;13.47;;;5.10;99.90;;;;;;5097456;28;20219;-88
2023/01/25 07:43:22;;;;;;;66.05;31.25;;;5.20;99.90;;;;;;5096445;28;20488;-88
2023/01/25 07:45:48;;;;;;;23.75;14.43;;;5.10;99.90;;;;;;5093964;28;20176;-83
2023/01/25 07:48:15;;;;;;;21.50;14.13;;;5.00;99.90;;;;;;5085440;28;20205;-84
2023/01/25 07:50:41;;;;;;;22.02;13.07;;;5.00;99.90;;;;;;5091414;28;20452;-83
2023/01/25 07:53:07;;;;;;;24.13;13.60;;;5.00;99.90;;;;;;5109456;28;20199;-83
2023/01/25 07:55:33;;;;;;;31.77;18.88;;;5.20;99.90;;;;;;5090436;28;20176;-89
2023/01/25 07:57:59;;;;;;;29.80;18.70;;;5.30;99.90;;;;;;5091212;28;20199;-89
2023/01/25 08:00:26;;;;;;;26.15;14.25;;;5.30;99.90;;;;;;5092652;28;20191;-84
2023/01/25 08:02:52;;;;;;;25.92;15.82;;;5.20;99.90;;;;;;5092922;28;20211;-89
2023/01/25 08:05:18;;;;;;;22.63;12.70;;;5.40;99.90;;;;;;5094764;28;20211;-88
2023/01/25 08:07:44;;;;;;;22.10;12.40;;;5.40;99.90;;;;;;5113741;28;20199;-84
2023/01/25 08:10:11;;;;;;;23.90;12.73;;;5.50;99.90;;;;;;5096503;28;20234;-84
2023/01/25 08:12:37;;;;;;;23.67;13.15;;;5.50;99.90;;;;;;5097549;28;20196;-83
2023/01/25 08:15:03;;;;;;;22.52;12.10;;;5.60;99.90;;;;;;5079728;28;20625;-88
2023/01/25 08:17:32;;;;;;;25.38;14.68;;;5.60;99.90;;;;;;5095775;28;20196;-84
2023/01/25 08:20:00;;;;;;;21.08;12.43;;;5.60;99.90;;;;;;5077977;28;20559;-84
2023/01/25 08:22:26;;;;;;;23.02;13.60;;;5.60;99.90;;;;;;5096984;28;20256;-90
2023/01/25 08:24:52;;;;;;;24.13;14.15;;;5.60;99.90;;;;;;5115916;28;20176;-84
2023/01/25 08:27:18;;;;;;;23.23;13.00;;;5.60;99.90;;;;;;5091795;28;20234;-89
2023/01/25 08:29:43;;;;;;;26.63;14.60;;;5.70;99.90;;;;;;5076632;28;20473;-89
2023/01/25 08:32:11;;;;;;;25.70;14.13;;;5.60;99.90;;;;;;5090634;28;20199;-89
2023/01/25 08:34:38;;;;;;;21.73;14.95;;;5.60;99.90;;;;;;5096815;28;20469;-85
2023/01/25 08:37:05;;;;;;;20.70;13.68;;;5.60;99.90;;;;;;5094831;28;20180;-84
2023/01/25 08:39:31;;;;;;;21.40;13.07;;;5.70;99.90;;;;;;5108210;28;20191;-89
2023/01/25 08:41:56;;;;;;;23.10;13.33;;;5.60;99.90;;;;;;5113713;28;20176;-84
2023/01/25 08:44:24;;;;;;;22.57;13.07;;;5.70;99.90;;;;;;5089111;28;20179;-84
2023/01/25 08:46:50;;;;;;;22.70;12.60;;;5.70;99.90;;;;;;5091886;28;20179;-89
2023/01/25 08:49:16;;;;;;;22.23;13.80;;;5.80;99.90;;;;;;5111667;28;20237;-90
2023/01/25 08:51:42;;;;;;;22.97;13.27;;;5.80;99.90;;;;;;5113089;28;20408;-86
2023/01/25 08:54:11;;;;;;;23.35;13.75;;;5.90;99.90;;;;;;5094221;28;20427;-84
2023/01/25 08:56:38;;;;;;;17.67;12.75;;;5.90;99.90;;;;;;5113230;28;20180;-90
2023/01/25 08:59:05;;;;;;;24.77;12.73;;;6.00;99.90;;;;;;5113934;28;20249;-89
2023/01/25 09:01:31;;;;;;;24.00;12.15;;;6.00;99.90;;;;;;5103778;28;20531;-89
2023/01/25 09:03:57;;;;;;;23.00;13.30;;;6.10;99.90;;;;;;5094958;28;20256;-85
2023/01/25 09:06:22;;;;;;;19.67;13.27;;;6.10;99.90;;;;;;5095014;28;20649;-88
2023/01/25 09:08:48;;;;;;;20.23;12.47;;;6.20;99.90;;;;;;5112656;28;20511;-86
2023/01/25 09:11:19;;;;;;;23.20;12.63;;;6.30;99.90;;;;;;5089784;28;20675;-83
2023/01/25 09:13:47;;;;;;;22.85;12.45;;;6.30;99.90;;;;;;5101920;28;20264;-85
2023/01/25 09:16:16;;;;;;;20.10;11.98;;;6.40;99.90;;;;;;5108254;28;20176;-85
2023/01/25 09:18:43;;;;;;;18.80;11.55;;;6.40;99.90;;;;;;5085698;28;20196;-85
2023/01/25 09:21:14;;;;;;;18.65;11.77;;;6.40;99.90;;;;;;5083708;28;20633;-84
2023/01/25 09:23:39;;;;;;;18.50;11.40;;;6.40;99.90;;;;;;5108697;28;20199;-84
2023/01/25 09:26:06;;;;;;;54.33;32.70;;;6.50;99.90;;;;;;5082731;28;20221;-89
2023/01/25 09:28:33;;;;;;;36.88;21.70;;;6.40;99.90;;;;;;5077327;28;20739;-85
2023/01/25 09:31:01;;;;;;;26.48;14.98;;;6.40;99.90;;;;;;5074355;28;20651;-88
2023/01/25 09:33:29;;;;;;;25.48;14.30;;;6.40;99.90;;;;;;5087003;28;20212;-85
2023/01/25 09:35:55;;;;;;;19.50;13.38;;;6.50;99.90;;;;;;5096157;28;20571;-89
2023/01/25 09:38:21;;;;;;;20.47;12.13;;;6.50;99.90;;;;;;5107445;28;20206;-90
2023/01/25 09:41:17;;;;;;;26.67;13.57;;;6.50;99.90;;;;;;5110184;28;20829;-84
2023/01/25 09:44:18;;;;;;;27.25;14.02;;;6.60;99.90;;;;;;5106737;28;20231;-84
2023/01/25 09:46:52;;;;;;;26.40;13.95;;;6.70;99.90;;;;;;5021311;28;20192;-83
2023/01/25 09:49:51;;;;;;;28.85;15.10;;;6.60;99.90;;;;;;5092152;28;20251;-83
2023/01/25 09:52:54;;;;;;;20.38;13.65;;;6.70;99.90;;;;;;5087153;28;20214;-83
2023/01/25 09:55:23;;;;;;;27.95;15.73;;;6.60;99.90;;;;;;5088287;28;20548;-88
2023/01/25 09:57:52;;;;;;;35.53;21.30;;;6.60;99.90;;;;;;5095888;28;20192;-88
2023/01/25 10:00:27;;;;;;;112.75;53.63;;;6.70;99.90;;;;;;5090628;28;20698;-83
2023/01/25 10:03:22;;;;;;;43.13;22.67;;;6.70;99.90;;;;;;5096305;28;20206;-88
2023/01/25 10:05:55;;;;;;;28.23;16.85;;;6.80;99.90;;;;;;5075720;28;20183;-88
2023/01/25 10:08:25;;;;;;;127.05;61.80;;;6.70;99.90;;;;;;5080952;28;20318;-88
2023/01/25 10:10:58;;;;;;;44.17;26.15;;;6.50;99.90;;;;;;5095903;28;20177;-89
2023/01/25 10:13:30;;;;;;;27.15;14.40;;;6.50;99.90;;;;;;5085589;28;20211;-89
2023/01/25 10:16:11;;;;;;;26.05;14.48;;;6.60;99.90;;;;;;5084151;28;20179;-84
2023/01/25 10:18:44;;;;;;;25.13;12.57;;;6.80;99.90;;;;;;5104311;28;20226;-84
2023/01/25 10:21:36;;;;;;;19.67;12.57;;;6.70;99.90;;;;;;5102016;28;20695;-84
2023/01/25 10:24:14;;;;;;;21.52;13.15;;;6.70;99.90;;;;;;5088539;28;20203;-84
2023/01/25 10:26:43;;;;;;;19.52;11.60;;;6.70;99.90;;;;;;5089337;28;20507;-88
2023/01/25 10:29:38;;;;;;;24.40;13.70;;;6.70;99.90;;;;;;5083586;28;20231;-85
2023/01/25 10:32:27;;;;;;;21.80;13.20;;;6.60;99.90;;;;;;5088366;28;20176;-85
2023/01/25 10:34:55;;;;;;;24.02;14.00;;;6.70;99.90;;;;;;5106730;28;20187;-89
2023/01/25 10:37:26;;;;;;;19.42;12.70;;;6.80;99.90;;;;;;5104243;28;20198;-89
2023/01/25 10:40:00;;;;;;;22.83;15.88;;;6.80;99.90;;;;;;5089625;28;20328;-89
2023/01/25 10:42:31;;;;;;;21.52;13.93;;;6.80;99.90;;;;;;5101797;28;20688;-88
2023/01/25 10:44:57;;;;;;;25.52;13.98;;;6.90;99.90;;;;;;5107336;28;20505;-85
2023/01/25 10:47:25;;;;;;;22.90;12.43;;;7.00;99.90;;;;;;5090674;28;20585;-85
2023/01/25 10:49:55;;;;;;;18.75;12.80;;;6.90;99.90;;;;;;5095487;28;20687;-85
2023/01/25 10:52:27;;;;;;;29.25;20.88;;;6.90;99.90;;;;;;5109684;28;20215;-89
2023/01/25 10:55:06;;;;;;;25.27;15.20;;;6.90;99.90;;;;;;5112833;28;20172;-88
2023/01/25 10:57:33;;;;;;;25.20;13.65;;;6.90;99.90;;;;;;5112746;28;20204;-84
2023/01/25 11:00:10;;;;;;;26.77;15.75;;;7.00;99.90;;;;;;5093807;28;20188;-84
2023/01/25 11:02:46;;;;;;;21.70;12.82;;;7.10;99.90;;;;;;5111660;28;20590;-85
2023/01/25 11:05:38;;;;;;;21.90;14.05;;;7.10;99.90;;;;;;5094360;28;20183;-89
2023/01/25 11:08:22;;;;;;;21.50;12.50;;;7.20;99.90;;;;;;5082447;28;20222;-85
2023/01/25 11:10:48;;;;;;;23.75;13.60;;;7.20;99.90;;;;;;5104401;28;20209;-84
2023/01/25 11:13:14;;;;;;;21.55;13.98;;;7.20;99.90;;;;;;5089906;28;20204;-84
2023/01/25 11:15:53;;;;;;;22.77;12.37;;;7.10;99.90;;;;;;5081574;28;20182;-85
2023/01/25 11:18:24;;;;;;;25.13;15.00;;;7.10;99.90;;;;;;5104892;28;20207;-88
2023/01/25 11:21:05;;;;;;;23.75;13.82;;;7.20;99.90;;;;;;5103471;28;20715;-84
2023/01/25 11:23:32;;;;;;;22.42;13.90;;;7.10;99.90;;;;;;5098302;28;20617;-87
2023/01/25 11:26:12;;;;;;;26.67;14.40;;;7.20;99.90;;;;;;5093155;28;20184;-89
2023/01/25 11:28:37;;;;;;;24.95;14.45;;;7.10;99.90;;;;;;5113000;28;20242;-88
2023/01/25 11:31:07;;;;;;;23.60;13.70;;;7.10;99.90;;;;;;5104616;28;20234;-81
2023/01/25 11:33:32;;;;;;;21.85;13.88;;;7.20;99.90;;;;;;5093960;28;20696;-82
2023/01/25 11:36:04;;;;;;;26.63;14.80;;;7.10;99.90;;;;;;5084457;28;20180;-81
2023/01/25 11:38:30;;;;;;;23.98;13.40;;;7.10;99.90;;;;;;5094044;28;20211;-81
2023/01/25 11:41:15;;;;;;;21.53;13.67;;;7.20;99.90;;;;;;5096435;28;20191;-85
2023/01/25 11:43:47;;;;;;;25.08;13.20;;;7.20;99.90;;;;;;5106834;28;20448;-81
2023/01/25 11:46:36;;;;;;;25.77;13.70;;;7.30;99.90;;;;;;5078624;28;20760;-85
2023/01/25 11:49:34;;;;;;;18.45;11.63;;;7.30;99.90;;;;;;5048544;28;20236;-82
2023/01/25 11:52:14;;;;;;;20.50;12.68;;;7.30;99.90;;;;;;5080355;28;20231;-83
2023/01/25 11:54:58;;;;;;;21.58;12.90;;;7.30;99.90;;;;;;5106788;28;20196;-82
2023/01/25 11:57:33;;;;;;;23.40;14.57;;;7.40;99.90;;;;;;5107950;28;20206;-86
2023/01/25 12:00:21;;;;;;;19.92;12.55;;;7.30;99.90;;;;;;5108361;28;20648;-85
2023/01/25 12:02:55;;;;;;;20.80;13.48;;;7.30;99.90;;;;;;5090038;28;20204;-82
2023/01/25 12:05:36;;;;;;;23.40;13.60;;;7.30;99.90;;;;;;5106089;28;20176;-86
2023/01/25 12:08:13;;;;;;;25.15;14.55;;;7.30;99.90;;;;;;5086052;28;20191;-86
2023/01/25 12:10:59;;;;;;;25.42;13.85;;;7.30;99.90;;;;;;5085132;28;20648;-81
2023/01/25 12:14:18;;;;;;;23.15;14.02;;;7.20;99.90;;;;;;5086865;28;20200;-82
2023/01/25 12:16:56;;;;;;;23.90;14.25;;;7.20;99.90;;;;;;5004962;28;20214;-81
2023/01/25 12:19:59;;;;;;;21.52;13.40;;;7.30;99.90;;;;;;5089949;28;20192;-87
2023/01/25 12:22:40;;;;;;;22.20;13.13;;;7.30;99.90;;;;;;5109432;28;20685;-81
2023/01/25 12:25:34;;;;;;;26.42;14.52;;;7.30;99.90;;;;;;5102022;28;20218;-86
2023/01/25 12:27:59;;;;;;;23.88;13.68;;;7.30;99.90;;;;;;5084415;28;20600;-82
2023/01/25 12:30:36;;;;;;;26.63;14.60;;;7.40;99.90;;;;;;5086100;28;20215;-84
2023/01/25 12:33:10;;;;;;;21.42;14.27;;;7.40;99.90;;;;;;5103106;28;20223;-86
2023/01/25 12:35:40;;;;;;;27.58;16.00;;;7.40;99.90;;;;;;5104268;28;20186;-82
2023/01/25 12:38:40;;;;;;;27.63;16.20;;;7.40;99.90;;;;;;5102630;28;20211;-85
2023/01/25 12:41:40;;;;;;;27.88;17.05;;;7.40;99.90;;;;;;5083809;28;20184;-84
2023/01/25 12:44:50;;;;;;;25.70;14.30;;;7.40;99.90;;;;;;5106726;28;20295;-81
2023/01/25 12:47:38;;;;;;;20.75;13.77;;;7.40;99.90;;;;;;5039625;28;20207;-82
2023/01/25 12:50:26;;;;;;;24.50;15.75;;;7.50;99.90;;;;;;5104148;28;20215;-85
2023/01/25 12:53:00;;;;;;;23.02;15.32;;;7.50;99.90;;;;;;5106209;28;20204;-85
2023/01/25 12:55:27;;;;;;;26.08;13.57;;;7.40;99.90;;;;;;5088454;28;20739;-86
2023/01/25 12:58:17;;;;;;;27.15;14.20;;;7.40;99.90;;;;;;5082142;28;20199;-82
2023/01/25 13:00:57;;;;;;;22.63;14.30;;;7.40;99.90;;;;;;5083041;28;20171;-86